Pagrindinis puslapis
METAR-TAF:

METAR-TAF

Oro uostai :

Rarotongos tarptautinis oro uostas

Rarotonga, Kuko Salos

platuma: 21-12S, ilguma: 159-49W, Aukštis: 7 m

Dabartinis oras

Ataskaita buvo paskelbta 20 minutes, ne 02:30 UTC
Vėjas 6 kt iš Šiaurės
Temperatūra 25°C
Drėgmė 79%
Slėgis 1013 hPa
Matomumas 10 km arba daugiau

METAR: NCRG 170230Z AUTO 01006KT 9999 FEW020/// SCT028/// 25/21 Q1013

Laikas: 16:50 (02:50 UTC)

Prognozė

Ataskaita buvo paskelbta 3 valandos ir 35 minutes, ne 23:15 UTC
Prognozė galioja nuo 17 metu 00 UTC su 17 metu 24 UTC
Vėjas 10 kt iš Šiaurės
Matomumas 10 km arba daugiau
Išsisklaidę debesys ne aukštis 2500 ft
Tikimybė 30% :
Laikinai
nuo 17 metu 18 UTC su 17 metu 24 UTC
Matomumas: 5000 m
Su prošvaistėmis ne aukštis 1500 ft
lietus

TAF: NCRG 162315Z 1700/1724 01010KT 9999 SCT025 PROB30 TEMPO 1718/1724 5000 SHRA BKN015

Orai ataskaitas ir orų prognozės (METAR, TAF).

turimą stotys yra geltonos ir raudonos taškus žemėlapyje.

Perkelti pele per norėdami pamatyti stoties vardą.

Tada spustelėkite, norėdami matyti oro stebėjimo ir prognozės.

Norėdami pakeisti žemėlapį: spustelėkite ant žalios mygtukų su juodo kryžiaus žemyn,; žalią mygtuką su brūkšneliu, jei norite nutolinti; arba žalių rodyklių gretimoms žemėlapius.


METAR-TAF: